KBLU/BLU METAR and TAF weather

Enter ICAO airport designator
Station Type Date Time Source
KBLU METAR 2018/01/21 10:52 UTC NOAA

KBLU 211052Z AUTO 05004KT 10SM CLR M01/M13 A3020 RMK AO2 SLP235 T10111133


Station Type Date Time Source
KBLU Decoded METAR 2018/01/21 10:52 UTC NOAA

BLUE CANYON AIRPORT, CA, United States (KBLU) 39-17N 120-42W 1609M
Jan 21, 2018 - 05:52 AM EST / 2018.01.21 1052 UTC
Wind: from the NE (050 degrees) at 5 MPH (4 KT):0
Visibility: 10 mile(s):0
Sky conditions: clear
Temperature: 30.0 F (-1.1 C)
Windchill: 24 F (-4 C):1
Dew Point: 8.1 F (-13.3 C)
Relative Humidity: 38%
Pressure (altimeter): 30.2 in. Hg (1022 hPa)
ob: KBLU 211052Z AUTO 05004KT 10SM CLR M01/M13 A3020 RMK AO2 SLP235 T10111133
cycle: 11

Station Type Date Time Source
KBLU TAF UTC NOAA

Error!


Example: see airport list